KLM775 TNCM-TTPP
Flight info
| Callsign | KLM775 |
|---|---|
| Flight time | 1h 14m |
| Altitude | 40000 |
| Route | MODOR2 ZPATA |
| Aircraft | B789/H-SDE1E2E3FGHIJ2J3J4J5M1RWXY/LB1D1 |
Departure
| Time | 2026-05-07 22:54 |
|---|---|
| Airport | Princess Juliana International Airport (TNCM) |
Arrival
| Time | 2026-05-08 00:09 |
|---|---|
| Airport | Piarco International Airport (TTPP) |
| Time | Latitude | Longitude | Altitude | Speed | Heading |
|---|---|---|---|---|---|
| 2026-05-07 22:23 | 18.04313 | -63.11360 | 34 ft | 0 kts | 351° |
| 2026-05-07 22:42 | 18.04293 | -63.11356 | 33 ft | 2 kts | 352° |
| 2026-05-07 22:42 | 18.04270 | -63.11351 | 32 ft | 4 kts | 329° |
| 2026-05-07 22:42 | 18.04253 | -63.11332 | 30 ft | 4 kts | 278° |
| 2026-05-07 22:42 | 18.04256 | -63.11306 | 30 ft | 4 kts | 247° |
| 2026-05-07 22:43 | 18.04262 | -63.11292 | 30 ft | 3 kts | 241° |
| 2026-05-07 22:43 | 18.04250 | -63.11317 | 30 ft | 4 kts | 247° |
| 2026-05-07 22:43 | 18.04245 | -63.11331 | 31 ft | 0 kts | 251° |
| 2026-05-07 22:48 | 18.04245 | -63.11332 | 31 ft | 0 kts | 251° |
| 2026-05-07 22:49 | 18.04245 | -63.11334 | 31 ft | 4 kts | 251° |
| 2026-05-07 22:50 | 18.04222 | -63.11347 | 33 ft | 2 kts | 185° |
| 2026-05-07 22:50 | 18.04180 | -63.11322 | 34 ft | 10 kts | 150° |
| 2026-05-07 22:50 | 18.04106 | -63.11296 | 33 ft | 13 kts | 169° |
| 2026-05-07 22:50 | 18.04037 | -63.11323 | 33 ft | 10 kts | 246° |
| 2026-05-07 22:51 | 18.04019 | -63.11410 | 33 ft | 16 kts | 261° |
| 2026-05-07 22:51 | 18.04000 | -63.11535 | 33 ft | 18 kts | 262° |
| 2026-05-07 22:51 | 18.03981 | -63.11672 | 33 ft | 20 kts | 261° |
| 2026-05-07 22:51 | 18.03964 | -63.11819 | 33 ft | 21 kts | 270° |
| 2026-05-07 22:52 | 18.03988 | -63.11936 | 33 ft | 10 kts | 269° |
| 2026-05-07 22:52 | 18.03961 | -63.11951 | 33 ft | 4 kts | 169° |
| 2026-05-07 22:52 | 18.03951 | -63.11936 | 33 ft | 2 kts | 118° |
| 2026-05-07 22:52 | 18.03950 | -63.11897 | 33 ft | 8 kts | 89° |
| 2026-05-07 22:53 | 18.03954 | -63.11859 | 33 ft | 0 kts | 82° |
| 2026-05-07 22:54 | 18.03955 | -63.11852 | 33 ft | 8 kts | 82° |
| 2026-05-07 22:54 | 18.04001 | -63.11528 | 33 ft | 88 kts | 81° |
| 2026-05-07 22:54 | 18.04131 | -63.10590 | 60 ft | 165 kts | 82° |
| 2026-05-07 22:54 | 18.04221 | -63.09373 | 1056 ft | 169 kts | 91° |
| 2026-05-07 22:55 | 18.03785 | -63.08317 | 2410 ft | 161 kts | 128° |
| 2026-05-07 22:55 | 18.02783 | -63.07661 | 3161 ft | 185 kts | 167° |
| 2026-05-07 22:55 | 18.01433 | -63.07688 | 3922 ft | 207 kts | 185° |
| 2026-05-07 22:55 | 17.99958 | -63.07821 | 4875 ft | 218 kts | 181° |
| 2026-05-07 22:56 | 17.98404 | -63.07825 | 5893 ft | 227 kts | 176° |
| 2026-05-07 22:56 | 17.96798 | -63.07793 | 6783 ft | 243 kts | 180° |
| 2026-05-07 22:56 | 17.95014 | -63.07905 | 7401 ft | 271 kts | 182° |
| 2026-05-07 22:56 | 17.93036 | -63.08009 | 8177 ft | 291 kts | 181° |
| 2026-05-07 22:57 | 17.90998 | -63.08074 | 9491 ft | 297 kts | 181° |
| 2026-05-07 22:57 | 17.88905 | -63.08135 | 10569 ft | 309 kts | 181° |
| 2026-05-07 22:57 | 17.86716 | -63.07713 | 11142 ft | 336 kts | 154° |
| 2026-05-07 22:57 | 17.84584 | -63.06492 | 11693 ft | 363 kts | 149° |
| 2026-05-07 22:58 | 17.82402 | -63.05078 | 12716 ft | 370 kts | 147° |
| 2026-05-07 22:58 | 17.80188 | -63.03654 | 13815 ft | 379 kts | 149° |
| 2026-05-07 22:58 | 17.77889 | -63.02247 | 14823 ft | 385 kts | 149° |
| 2026-05-07 22:58 | 17.75560 | -63.00826 | 15851 ft | 391 kts | 149° |
| 2026-05-07 22:59 | 17.73203 | -62.99358 | 16840 ft | 397 kts | 148° |
| 2026-05-07 22:59 | 17.70814 | -62.97863 | 17811 ft | 403 kts | 148° |
| 2026-05-07 22:59 | 17.68387 | -62.96358 | 18704 ft | 409 kts | 148° |
| 2026-05-07 22:59 | 17.65921 | -62.94835 | 19558 ft | 413 kts | 148° |
| 2026-05-07 23:00 | 17.63430 | -62.93292 | 20363 ft | 419 kts | 148° |
| 2026-05-07 23:00 | 17.60941 | -62.91746 | 21190 ft | 424 kts | 148° |
| 2026-05-07 23:00 | 17.58383 | -62.90161 | 21944 ft | 430 kts | 148° |
| 2026-05-07 23:00 | 17.55794 | -62.88559 | 22716 ft | 435 kts | 147° |
| 2026-05-07 23:01 | 17.53173 | -62.86937 | 23462 ft | 440 kts | 147° |
| 2026-05-07 23:01 | 17.50525 | -62.85297 | 24103 ft | 445 kts | 147° |
| 2026-05-07 23:01 | 17.47846 | -62.83640 | 24718 ft | 449 kts | 147° |
| 2026-05-07 23:01 | 17.45042 | -62.82164 | 25321 ft | 455 kts | 159° |
| 2026-05-07 23:02 | 17.41972 | -62.81328 | 25974 ft | 458 kts | 169° |
| 2026-05-07 23:02 | 17.38825 | -62.80740 | 26566 ft | 462 kts | 170° |
| 2026-05-07 23:02 | 17.35644 | -62.80175 | 27169 ft | 465 kts | 171° |
| 2026-05-07 23:02 | 17.32441 | -62.79606 | 27748 ft | 468 kts | 170° |
| 2026-05-07 23:03 | 17.29220 | -62.79017 | 28319 ft | 472 kts | 170° |
| 2026-05-07 23:03 | 17.25974 | -62.78421 | 28856 ft | 476 kts | 170° |
| 2026-05-07 23:03 | 17.22694 | -62.77828 | 29375 ft | 480 kts | 170° |
| 2026-05-07 23:03 | 17.19391 | -62.77233 | 29919 ft | 483 kts | 170° |
| 2026-05-07 23:04 | 17.16064 | -62.76630 | 30381 ft | 487 kts | 170° |
| 2026-05-07 23:04 | 17.12715 | -62.76021 | 30785 ft | 490 kts | 171° |
| 2026-05-07 23:04 | 17.09374 | -62.75416 | 31630 ft | 480 kts | 171° |
| 2026-05-07 23:04 | 17.06114 | -62.74827 | 32061 ft | 477 kts | 171° |
| 2026-05-07 23:05 | 17.02868 | -62.74240 | 32025 ft | 467 kts | 171° |
| 2026-05-07 23:05 | 16.99715 | -62.73669 | 32027 ft | 453 kts | 171° |
| 2026-05-07 23:05 | 16.96640 | -62.73113 | 32027 ft | 445 kts | 171° |
| 2026-05-07 23:06 | 16.90536 | -62.72012 | 32039 ft | 449 kts | 171° |
| 2026-05-07 23:06 | 16.84362 | -62.70896 | 32032 ft | 449 kts | 171° |
| 2026-05-07 23:07 | 16.78203 | -62.69785 | 32038 ft | 449 kts | 171° |
| 2026-05-07 23:07 | 16.73093 | -62.68863 | 32029 ft | 447 kts | 172° |
| 2026-05-07 23:08 | 16.66956 | -62.67757 | 32032 ft | 450 kts | 172° |
| 2026-05-07 23:08 | 16.60797 | -62.66647 | 32031 ft | 448 kts | 172° |
| 2026-05-07 23:09 | 16.54642 | -62.65540 | 32033 ft | 450 kts | 172° |
| 2026-05-07 23:09 | 16.48501 | -62.64434 | 32029 ft | 447 kts | 172° |
| 2026-05-07 23:10 | 16.42378 | -62.63334 | 32030 ft | 446 kts | 172° |
| 2026-05-07 23:10 | 16.36276 | -62.62237 | 32031 ft | 445 kts | 172° |
| 2026-05-07 23:11 | 16.30153 | -62.61139 | 32032 ft | 446 kts | 172° |
| 2026-05-07 23:11 | 16.24048 | -62.60042 | 32032 ft | 445 kts | 173° |
| 2026-05-07 23:12 | 16.17931 | -62.58948 | 32032 ft | 445 kts | 172° |
| 2026-05-07 23:12 | 16.11875 | -62.57860 | 32030 ft | 445 kts | 173° |
| 2026-05-07 23:13 | 16.05760 | -62.56766 | 32032 ft | 445 kts | 172° |
| 2026-05-07 23:13 | 15.99661 | -62.55674 | 32031 ft | 446 kts | 172° |
| 2026-05-07 23:14 | 15.93543 | -62.54580 | 32031 ft | 445 kts | 172° |
| 2026-05-07 23:14 | 15.87436 | -62.53487 | 32029 ft | 447 kts | 172° |
| 2026-05-07 23:15 | 15.81331 | -62.52397 | 32027 ft | 441 kts | 172° |
| 2026-05-07 23:15 | 15.75323 | -62.51324 | 32024 ft | 438 kts | 172° |
| 2026-05-07 23:16 | 15.69303 | -62.50251 | 32028 ft | 440 kts | 172° |
| 2026-05-07 23:16 | 15.63259 | -62.49172 | 32033 ft | 441 kts | 172° |
| 2026-05-07 23:17 | 15.57210 | -62.48094 | 32029 ft | 440 kts | 172° |
| 2026-05-07 23:17 | 15.51185 | -62.47021 | 32023 ft | 438 kts | 173° |
| 2026-05-07 23:18 | 15.45188 | -62.45954 | 32021 ft | 437 kts | 173° |
| 2026-05-07 23:18 | 15.39190 | -62.44887 | 32020 ft | 437 kts | 173° |
| 2026-05-07 23:19 | 15.33188 | -62.43819 | 32018 ft | 438 kts | 173° |
| 2026-05-07 23:19 | 15.27183 | -62.42752 | 32019 ft | 438 kts | 173° |
| 2026-05-07 23:20 | 15.21179 | -62.41686 | 32020 ft | 438 kts | 173° |
| 2026-05-07 23:20 | 15.15179 | -62.40621 | 32017 ft | 437 kts | 173° |
| 2026-05-07 23:21 | 15.09200 | -62.39560 | 32016 ft | 435 kts | 173° |
| 2026-05-07 23:21 | 15.03221 | -62.38501 | 32016 ft | 436 kts | 173° |
| 2026-05-07 23:22 | 14.97230 | -62.37439 | 32018 ft | 437 kts | 173° |
| 2026-05-07 23:22 | 14.91266 | -62.36383 | 32015 ft | 438 kts | 173° |
| 2026-05-07 23:23 | 14.85260 | -62.35319 | 32015 ft | 436 kts | 173° |
| 2026-05-07 23:23 | 14.79298 | -62.34265 | 32010 ft | 435 kts | 173° |
| 2026-05-07 23:24 | 14.73336 | -62.33211 | 32009 ft | 435 kts | 173° |
| 2026-05-07 23:24 | 14.67371 | -62.32157 | 32009 ft | 435 kts | 173° |
| 2026-05-07 23:25 | 14.61400 | -62.31102 | 32010 ft | 435 kts | 173° |
| 2026-05-07 23:25 | 14.55430 | -62.30049 | 32001 ft | 435 kts | 173° |
| 2026-05-07 23:26 | 14.49469 | -62.28997 | 32010 ft | 434 kts | 173° |
| 2026-05-07 23:26 | 14.43511 | -62.27947 | 32009 ft | 434 kts | 173° |
| 2026-05-07 23:27 | 14.34570 | -62.26372 | 32009 ft | 435 kts | 173° |
| 2026-05-07 23:27 | 14.28606 | -62.25321 | 32010 ft | 435 kts | 173° |
| 2026-05-07 23:28 | 14.22641 | -62.24271 | 32001 ft | 435 kts | 173° |
| 2026-05-07 23:28 | 14.16705 | -62.23227 | 32004 ft | 431 kts | 173° |
| 2026-05-07 23:29 | 14.10790 | -62.22188 | 32004 ft | 431 kts | 174° |
| 2026-05-07 23:29 | 14.04930 | -62.21159 | 32004 ft | 430 kts | 174° |
| 2026-05-07 23:30 | 13.99023 | -62.20121 | 32001 ft | 431 kts | 174° |
| 2026-05-07 23:30 | 13.93098 | -62.19081 | 32002 ft | 432 kts | 174° |
| 2026-05-07 23:31 | 13.87185 | -62.18043 | 32014 ft | 429 kts | 174° |
| 2026-05-07 23:31 | 13.81302 | -62.17013 | 32003 ft | 428 kts | 174° |
| 2026-05-07 23:32 | 13.75424 | -62.15982 | 32000 ft | 429 kts | 174° |
| 2026-05-07 23:32 | 13.69543 | -62.14952 | 32001 ft | 429 kts | 174° |
| 2026-05-07 23:33 | 13.63660 | -62.13923 | 31997 ft | 429 kts | 174° |
| 2026-05-07 23:33 | 13.57776 | -62.12893 | 31989 ft | 429 kts | 174° |
| 2026-05-07 23:34 | 13.51915 | -62.11867 | 32000 ft | 426 kts | 174° |
| 2026-05-07 23:34 | 13.46062 | -62.10845 | 31993 ft | 427 kts | 174° |
| 2026-05-07 23:35 | 13.40205 | -62.09821 | 32001 ft | 427 kts | 174° |
| 2026-05-07 23:35 | 13.34343 | -62.08798 | 31987 ft | 427 kts | 174° |
| 2026-05-07 23:36 | 13.28481 | -62.07775 | 31999 ft | 428 kts | 174° |
| 2026-05-07 23:36 | 13.22618 | -62.06751 | 31990 ft | 425 kts | 175° |
| 2026-05-07 23:37 | 13.16803 | -62.05739 | 31986 ft | 424 kts | 175° |
| 2026-05-07 23:37 | 13.11025 | -62.04731 | 31986 ft | 424 kts | 175° |
| 2026-05-07 23:38 | 13.05204 | -62.03717 | 31996 ft | 424 kts | 175° |
| 2026-05-07 23:38 | 12.99338 | -62.02696 | 31994 ft | 425 kts | 175° |
| 2026-05-07 23:39 | 12.93548 | -62.01688 | 31999 ft | 425 kts | 175° |
| 2026-05-07 23:39 | 12.87717 | -62.00674 | 31994 ft | 425 kts | 175° |
| 2026-05-07 23:40 | 12.81886 | -61.99660 | 31998 ft | 425 kts | 175° |
| 2026-05-07 23:40 | 12.76053 | -61.98646 | 31994 ft | 425 kts | 175° |
| 2026-05-07 23:41 | 12.70219 | -61.97633 | 31988 ft | 425 kts | 175° |
| 2026-05-07 23:41 | 12.64382 | -61.96619 | 31994 ft | 425 kts | 175° |
| 2026-05-07 23:42 | 12.58547 | -61.95606 | 31983 ft | 424 kts | 175° |
| 2026-05-07 23:42 | 12.52757 | -61.94602 | 31977 ft | 421 kts | 175° |
| 2026-05-07 23:43 | 12.46976 | -61.93600 | 31975 ft | 421 kts | 175° |
| 2026-05-07 23:43 | 12.41192 | -61.92597 | 31981 ft | 422 kts | 175° |
| 2026-05-07 23:44 | 12.35409 | -61.91595 | 31970 ft | 421 kts | 176° |
| 2026-05-07 23:44 | 12.29646 | -61.90598 | 31979 ft | 420 kts | 176° |
| 2026-05-07 23:45 | 12.23889 | -61.89601 | 31975 ft | 419 kts | 176° |
| 2026-05-07 23:45 | 12.18137 | -61.88606 | 31972 ft | 419 kts | 176° |
| 2026-05-07 23:46 | 12.12384 | -61.87611 | 31972 ft | 419 kts | 176° |
| 2026-05-07 23:46 | 12.06662 | -61.86620 | 31747 ft | 412 kts | 176° |
| 2026-05-07 23:47 | 12.03825 | -61.86132 | 30994 ft | 416 kts | 176° |
| 2026-05-07 23:47 | 12.00973 | -61.85642 | 30432 ft | 415 kts | 176° |
| 2026-05-07 23:47 | 11.98127 | -61.85148 | 29854 ft | 414 kts | 175° |
| 2026-05-07 23:47 | 11.95286 | -61.84656 | 29276 ft | 413 kts | 175° |
| 2026-05-07 23:48 | 11.92448 | -61.84168 | 28668 ft | 415 kts | 175° |
| 2026-05-07 23:48 | 11.89580 | -61.83675 | 28065 ft | 421 kts | 175° |
| 2026-05-07 23:48 | 11.86676 | -61.83174 | 27433 ft | 426 kts | 175° |
| 2026-05-07 23:48 | 11.83760 | -61.82668 | 26798 ft | 424 kts | 174° |
| 2026-05-07 23:49 | 11.80898 | -61.82172 | 26196 ft | 421 kts | 174° |
| 2026-05-07 23:49 | 11.78018 | -61.81677 | 25594 ft | 419 kts | 174° |
| 2026-05-07 23:49 | 11.75152 | -61.81184 | 24986 ft | 416 kts | 174° |
| 2026-05-07 23:49 | 11.72302 | -61.80693 | 24399 ft | 414 kts | 174° |
| 2026-05-07 23:50 | 11.69467 | -61.80203 | 23817 ft | 412 kts | 174° |
| 2026-05-07 23:50 | 11.66647 | -61.79717 | 23204 ft | 410 kts | 173° |
| 2026-05-07 23:50 | 11.63849 | -61.79235 | 22621 ft | 405 kts | 173° |
| 2026-05-07 23:50 | 11.61087 | -61.78759 | 22069 ft | 400 kts | 173° |
| 2026-05-07 23:51 | 11.58361 | -61.78290 | 21515 ft | 395 kts | 173° |
| 2026-05-07 23:51 | 11.55665 | -61.77826 | 20980 ft | 391 kts | 173° |
| 2026-05-07 23:51 | 11.53018 | -61.77369 | 20789 ft | 385 kts | 173° |
| 2026-05-07 23:51 | 11.50373 | -61.76916 | 20258 ft | 384 kts | 173° |
| 2026-05-07 23:52 | 11.47746 | -61.76464 | 19689 ft | 383 kts | 173° |
| 2026-05-07 23:52 | 11.45172 | -61.76019 | 19070 ft | 367 kts | 173° |
| 2026-05-07 23:52 | 11.42667 | -61.75588 | 18480 ft | 365 kts | 173° |
| 2026-05-07 23:52 | 11.40161 | -61.75160 | 17847 ft | 365 kts | 173° |
| 2026-05-07 23:53 | 11.37653 | -61.74729 | 17185 ft | 365 kts | 173° |
| 2026-05-07 23:53 | 11.35147 | -61.74298 | 16543 ft | 365 kts | 172° |
| 2026-05-07 23:53 | 11.32639 | -61.73868 | 15912 ft | 365 kts | 171° |
| 2026-05-07 23:53 | 11.30138 | -61.73439 | 15289 ft | 364 kts | 170° |
| 2026-05-07 23:54 | 11.27642 | -61.73009 | 14710 ft | 363 kts | 169° |
| 2026-05-07 23:54 | 11.25154 | -61.72580 | 14130 ft | 362 kts | 168° |
| 2026-05-07 23:54 | 11.22680 | -61.72155 | 13515 ft | 360 kts | 168° |
| 2026-05-07 23:54 | 11.20217 | -61.71731 | 12869 ft | 358 kts | 168° |
| 2026-05-07 23:55 | 11.18594 | -61.71453 | 12445 ft | 356 kts | 168° |
| 2026-05-07 23:55 | 11.16160 | -61.71035 | 11824 ft | 353 kts | 168° |
| 2026-05-07 23:55 | 11.13747 | -61.70620 | 11213 ft | 350 kts | 169° |
| 2026-05-07 23:55 | 11.11355 | -61.70210 | 10602 ft | 347 kts | 168° |
| 2026-05-07 23:56 | 11.08984 | -61.69804 | 10016 ft | 343 kts | 169° |
| 2026-05-07 23:56 | 11.06641 | -61.69402 | 9382 ft | 340 kts | 168° |
| 2026-05-07 23:56 | 11.04320 | -61.69003 | 8740 ft | 337 kts | 168° |
| 2026-05-07 23:56 | 11.02022 | -61.68609 | 8108 ft | 333 kts | 168° |
| 2026-05-07 23:57 | 10.99749 | -61.68219 | 7486 ft | 330 kts | 169° |
| 2026-05-07 23:57 | 10.97551 | -61.67842 | 7400 ft | 309 kts | 169° |
| 2026-05-07 23:57 | 10.95477 | -61.67489 | 7391 ft | 300 kts | 168° |
| 2026-05-07 23:57 | 10.93433 | -61.67136 | 7387 ft | 297 kts | 168° |
| 2026-05-07 23:58 | 10.91396 | -61.66787 | 7389 ft | 297 kts | 168° |
| 2026-05-07 23:58 | 10.89352 | -61.66436 | 7388 ft | 298 kts | 168° |
| 2026-05-07 23:58 | 10.87306 | -61.66085 | 7388 ft | 298 kts | 168° |
| 2026-05-07 23:58 | 10.85261 | -61.65736 | 7389 ft | 299 kts | 168° |
| 2026-05-07 23:59 | 10.83211 | -61.65385 | 7386 ft | 299 kts | 168° |
| 2026-05-07 23:59 | 10.81192 | -61.65040 | 7273 ft | 288 kts | 168° |
| 2026-05-07 23:59 | 10.79234 | -61.64705 | 6954 ft | 282 kts | 168° |
| 2026-05-07 23:59 | 10.77352 | -61.64382 | 6592 ft | 267 kts | 168° |
| 2026-05-08 00:00 | 10.75543 | -61.64073 | 6220 ft | 262 kts | 168° |
| 2026-05-08 00:00 | 10.73774 | -61.63768 | 5864 ft | 261 kts | 168° |
| 2026-05-08 00:00 | 10.72001 | -61.63464 | 5448 ft | 256 kts | 168° |
| 2026-05-08 00:00 | 10.70268 | -61.63166 | 5004 ft | 250 kts | 168° |
| 2026-05-08 00:01 | 10.68577 | -61.62892 | 4826 ft | 237 kts | 168° |
| 2026-05-08 00:01 | 10.66996 | -61.62617 | 4600 ft | 226 kts | 168° |
| 2026-05-08 00:01 | 10.65468 | -61.62348 | 4353 ft | 219 kts | 167° |
| 2026-05-08 00:01 | 10.63984 | -61.62093 | 4106 ft | 213 kts | 167° |
| 2026-05-08 00:02 | 10.62577 | -61.61855 | 4089 ft | 196 kts | 167° |
| 2026-05-08 00:02 | 10.61265 | -61.61632 | 4089 ft | 187 kts | 167° |
| 2026-05-08 00:02 | 10.60028 | -61.61275 | 4043 ft | 183 kts | 144° |
| 2026-05-08 00:02 | 10.59425 | -61.60249 | 4045 ft | 171 kts | 93° |
| 2026-05-08 00:03 | 10.59514 | -61.59047 | 4088 ft | 170 kts | 88° |
| 2026-05-08 00:03 | 10.59478 | -61.57870 | 4087 ft | 164 kts | 88° |
| 2026-05-08 00:03 | 10.59486 | -61.56703 | 3993 ft | 167 kts | 89° |
| 2026-05-08 00:03 | 10.59483 | -61.55557 | 3769 ft | 156 kts | 89° |
| 2026-05-08 00:04 | 10.59485 | -61.54487 | 3579 ft | 149 kts | 88° |
| 2026-05-08 00:04 | 10.59486 | -61.53444 | 3400 ft | 150 kts | 88° |
| 2026-05-08 00:04 | 10.59490 | -61.52366 | 3204 ft | 152 kts | 88° |
| 2026-05-08 00:04 | 10.59493 | -61.51289 | 3007 ft | 151 kts | 88° |
| 2026-05-08 00:05 | 10.59494 | -61.50225 | 2814 ft | 151 kts | 87° |
| 2026-05-08 00:05 | 10.59500 | -61.49158 | 2627 ft | 152 kts | 88° |
| 2026-05-08 00:05 | 10.59502 | -61.48082 | 2416 ft | 152 kts | 88° |
| 2026-05-08 00:05 | 10.59505 | -61.47018 | 2225 ft | 147 kts | 88° |
| 2026-05-08 00:06 | 10.59506 | -61.46015 | 2034 ft | 139 kts | 88° |
| 2026-05-08 00:06 | 10.59509 | -61.45034 | 1860 ft | 142 kts | 88° |
| 2026-05-08 00:06 | 10.59514 | -61.44032 | 1698 ft | 141 kts | 89° |
| 2026-05-08 00:06 | 10.59510 | -61.43042 | 1483 ft | 138 kts | 89° |
| 2026-05-08 00:07 | 10.59503 | -61.42059 | 1310 ft | 141 kts | 89° |
| 2026-05-08 00:07 | 10.59507 | -61.41066 | 1100 ft | 140 kts | 86° |
| 2026-05-08 00:07 | 10.59504 | -61.40067 | 952 ft | 138 kts | 89° |
| 2026-05-08 00:07 | 10.59520 | -61.39087 | 808 ft | 142 kts | 87° |
| 2026-05-08 00:08 | 10.59521 | -61.38053 | 647 ft | 143 kts | 90° |
| 2026-05-08 00:08 | 10.59519 | -61.37055 | 415 ft | 141 kts | 90° |
| 2026-05-08 00:08 | 10.59521 | -61.36049 | 217 ft | 144 kts | 89° |
| 2026-05-08 00:08 | 10.59531 | -61.35051 | 93 ft | 135 kts | 91° |
| 2026-05-08 00:09 | 10.59535 | -61.34222 | 48 ft | 92 kts | 89° |
| 2026-05-08 00:09 | 10.59537 | -61.33748 | 48 ft | 42 kts | 90° |
| 2026-05-08 00:09 | 10.59581 | -61.33520 | 49 ft | 21 kts | 51° |
| 2026-05-08 00:09 | 10.59637 | -61.33464 | 49 ft | 8 kts | 36° |
| 2026-05-08 00:10 | 10.59687 | -61.33463 | 50 ft | 6 kts | 329° |
| 2026-05-08 00:10 | 10.59705 | -61.33504 | 50 ft | 7 kts | 284° |
| 2026-05-08 00:10 | 10.59710 | -61.33566 | 54 ft | 10 kts | 268° |
| 2026-05-08 00:10 | 10.59709 | -61.33649 | 53 ft | 13 kts | 269° |
| 2026-05-08 00:11 | 10.59709 | -61.33751 | 52 ft | 16 kts | 270° |
| 2026-05-08 00:11 | 10.59710 | -61.33871 | 51 ft | 18 kts | 269° |
| 2026-05-08 00:11 | 10.59710 | -61.34008 | 50 ft | 21 kts | 270° |
| 2026-05-08 00:11 | 10.59709 | -61.34126 | 49 ft | 0 kts | 269° |
| 2026-05-08 00:12 | 10.59710 | -61.34128 | 49 ft | 0 kts | 277° |
| 2026-05-08 00:12 | 10.59714 | -61.34138 | 41 ft | 3 kts | 289° |
| 2026-05-08 00:12 | 10.59752 | -61.34165 | 48 ft | 9 kts | 341° |
| 2026-05-08 00:13 | 10.59817 | -61.34174 | 48 ft | 11 kts | 357° |
| 2026-05-08 00:13 | 10.59849 | -61.34175 | 48 ft | 1 kts | 359° |
| 2026-05-08 00:13 | 10.59866 | -61.34175 | 48 ft | 3 kts | 4° |
| 2026-05-08 00:13 | 10.59895 | -61.34167 | 48 ft | 5 kts | 21° |
| 2026-05-08 00:14 | 10.59919 | -61.34142 | 48 ft | 5 kts | 54° |
| 2026-05-08 00:14 | 10.59936 | -61.34108 | 49 ft | 6 kts | 66° |
| 2026-05-08 00:14 | 10.59941 | -61.34099 | 49 ft | 0 kts | 62° |
| 2026-05-08 00:14 | 10.59942 | -61.34096 | 49 ft | 1 kts | 63° |
| 2026-05-08 00:15 | 10.59948 | -61.34084 | 49 ft | 2 kts | 66° |
| 2026-05-08 00:15 | 10.59952 | -61.34072 | 46 ft | 1 kts | 69° |
| 2026-05-08 00:15 | 10.59953 | -61.34070 | 47 ft | 0 kts | 68° |